sensor_id;sensor_type;location;lat;lon;timestamp;pressure;altitude;pressure_sealevel;temperature;humidity
63204;BME280;49297;43.210;27.914;2022-12-11T00:00:57;99735.50;;;16.02;71.15
63204;BME280;49297;43.210;27.914;2022-12-11T00:03:23;99740.84;;;16.02;71.46
63204;BME280;49297;43.210;27.914;2022-12-11T00:05:49;99742.72;;;16.01;71.40
63204;BME280;49297;43.210;27.914;2022-12-11T00:08:14;99735.72;;;16.00;71.64
63204;BME280;49297;43.210;27.914;2022-12-11T00:10:47;99727.91;;;15.98;71.96
63204;BME280;49297;43.210;27.914;2022-12-11T00:13:13;99718.25;;;15.97;71.86
63204;BME280;49297;43.210;27.914;2022-12-11T00:15:39;99730.75;;;15.97;71.87
63204;BME280;49297;43.210;27.914;2022-12-11T00:18:05;99726.84;;;15.93;72.16
63204;BME280;49297;43.210;27.914;2022-12-11T00:20:31;99727.88;;;15.92;72.31
63204;BME280;49297;43.210;27.914;2022-12-11T00:22:56;99727.63;;;15.87;73.30
63204;BME280;49297;43.210;27.914;2022-12-11T00:25:22;99733.59;;;15.89;72.81
63204;BME280;49297;43.210;27.914;2022-12-11T00:27:48;99731.94;;;15.88;73.10
63204;BME280;49297;43.210;27.914;2022-12-11T00:30:14;99722.50;;;15.85;73.15
63204;BME280;49297;43.210;27.914;2022-12-11T00:32:41;99730.44;;;15.78;73.41
63204;BME280;49297;43.210;27.914;2022-12-11T00:35:07;99719.88;;;15.70;73.62
63204;BME280;49297;43.210;27.914;2022-12-11T00:37:34;99723.16;;;15.66;73.65
63204;BME280;49297;43.210;27.914;2022-12-11T00:40:00;99717.75;;;15.59;73.86
63204;BME280;49297;43.210;27.914;2022-12-11T00:42:25;99704.78;;;15.49;73.77
63204;BME280;49297;43.210;27.914;2022-12-11T00:44:51;99716.81;;;15.38;73.95
63204;BME280;49297;43.210;27.914;2022-12-11T00:47:18;99696.59;;;15.29;74.08
63204;BME280;49297;43.210;27.914;2022-12-11T00:49:44;99682.41;;;15.22;75.03
63204;BME280;49297;43.210;27.914;2022-12-11T00:52:09;99667.00;;;15.17;74.40
63204;BME280;49297;43.210;27.914;2022-12-11T00:54:35;99670.59;;;15.10;74.63
63204;BME280;49297;43.210;27.914;2022-12-11T00:57:01;99666.44;;;15.00;75.01
63204;BME280;49297;43.210;27.914;2022-12-11T00:59:27;99667.22;;;14.94;75.15
63204;BME280;49297;43.210;27.914;2022-12-11T01:01:53;99667.53;;;14.84;75.44
63204;BME280;49297;43.210;27.914;2022-12-11T01:04:19;99655.78;;;14.79;75.48
63204;BME280;49297;43.210;27.914;2022-12-11T01:06:45;99655.72;;;14.72;75.68
63204;BME280;49297;43.210;27.914;2022-12-11T01:09:10;99672.28;;;14.68;76.22
63204;BME280;49297;43.210;27.914;2022-12-11T01:11:54;99674.69;;;14.62;76.46
63204;BME280;49297;43.210;27.914;2022-12-11T01:14:20;99660.94;;;14.59;76.61
63204;BME280;49297;43.210;27.914;2022-12-11T01:16:46;99663.13;;;14.55;76.47
63204;BME280;49297;43.210;27.914;2022-12-11T01:19:12;99656.53;;;14.51;76.92
63204;BME280;49297;43.210;27.914;2022-12-11T01:21:38;99658.53;;;14.49;76.83
63204;BME280;49297;43.210;27.914;2022-12-11T01:24:04;99653.59;;;14.46;77.05
63204;BME280;49297;43.210;27.914;2022-12-11T01:26:30;99650.69;;;14.41;77.34
63204;BME280;49297;43.210;27.914;2022-12-11T01:28:55;99654.75;;;14.37;77.71
63204;BME280;49297;43.210;27.914;2022-12-11T01:31:21;99658.41;;;14.36;77.80
63204;BME280;49297;43.210;27.914;2022-12-11T01:33:47;99650.97;;;14.31;77.66
63204;BME280;49297;43.210;27.914;2022-12-11T01:36:16;99649.16;;;14.32;77.72
63204;BME280;49297;43.210;27.914;2022-12-11T01:38:43;99651.81;;;14.32;77.85
63204;BME280;49297;43.210;27.914;2022-12-11T01:41:09;99655.28;;;14.32;77.93
63204;BME280;49297;43.210;27.914;2022-12-11T01:43:57;99650.78;;;14.33;77.82
63204;BME280;49297;43.210;27.914;2022-12-11T01:46:24;99641.59;;;14.35;78.09
63204;BME280;49297;43.210;27.914;2022-12-11T01:48:50;99642.78;;;14.33;78.09
63204;BME280;49297;43.210;27.914;2022-12-11T01:51:16;99638.31;;;14.33;78.18
63204;BME280;49297;43.210;27.914;2022-12-11T01:53:48;99636.66;;;14.32;77.87
63204;BME280;49297;43.210;27.914;2022-12-11T01:56:16;99629.47;;;14.33;78.06
63204;BME280;49297;43.210;27.914;2022-12-11T01:58:45;99620.50;;;14.34;78.21
63204;BME280;49297;43.210;27.914;2022-12-11T02:01:21;99629.47;;;14.33;78.11
63204;BME280;49297;43.210;27.914;2022-12-11T02:03:49;99614.34;;;14.33;78.08
63204;BME280;49297;43.210;27.914;2022-12-11T02:08:58;99622.53;;;14.32;78.11
63204;BME280;49297;43.210;27.914;2022-12-11T02:17:27;99608.31;;;14.24;78.12
63204;BME280;49297;43.210;27.914;2022-12-11T02:20:01;99599.03;;;14.20;78.14
63204;BME280;49297;43.210;27.914;2022-12-11T02:25:25;99578.16;;;14.02;78.11
63204;BME280;49297;43.210;27.914;2022-12-11T02:31:10;99558.00;;;13.93;78.85
63204;BME280;49297;43.210;27.914;2022-12-11T02:33:50;99558.19;;;13.92;78.80
63204;BME280;49297;43.210;27.914;2022-12-11T02:36:17;99548.56;;;13.90;78.91
63204;BME280;49297;43.210;27.914;2022-12-11T02:38:48;99550.56;;;13.88;78.94
63204;BME280;49297;43.210;27.914;2022-12-11T02:41:18;99535.81;;;13.86;78.95
63204;BME280;49297;43.210;27.914;2022-12-11T02:43:45;99536.19;;;13.83;78.76
63204;BME280;49297;43.210;27.914;2022-12-11T02:46:13;99540.50;;;13.84;79.43
63204;BME280;49297;43.210;27.914;2022-12-11T02:48:40;99541.50;;;13.83;79.32
63204;BME280;49297;43.210;27.914;2022-12-11T02:51:08;99544.81;;;13.85;79.09
63204;BME280;49297;43.210;27.914;2022-12-11T02:53:37;99536.81;;;13.85;79.08
63204;BME280;49297;43.210;27.914;2022-12-11T02:56:10;99530.69;;;13.84;79.18
63204;BME280;49297;43.210;27.914;2022-12-11T02:58:42;99531.06;;;13.81;79.15
63204;BME280;49297;43.210;27.914;2022-12-11T03:01:10;99505.28;;;13.82;79.33
63204;BME280;49297;43.210;27.914;2022-12-11T03:03:36;99518.16;;;13.78;79.11
63204;BME280;49297;43.210;27.914;2022-12-11T03:06:02;99504.22;;;13.76;79.17
63204;BME280;49297;43.210;27.914;2022-12-11T03:08:28;99502.38;;;13.77;79.37
63204;BME280;49297;43.210;27.914;2022-12-11T03:10:54;99504.84;;;13.78;79.32
63204;BME280;49297;43.210;27.914;2022-12-11T03:13:21;99497.69;;;13.79;79.11
63204;BME280;49297;43.210;27.914;2022-12-11T03:16:28;99495.84;;;13.79;79.18
63204;BME280;49297;43.210;27.914;2022-12-11T03:21:51;99491.28;;;13.73;79.05
63204;BME280;49297;43.210;27.914;2022-12-11T03:24:52;99488.63;;;13.73;79.29
63204;BME280;49297;43.210;27.914;2022-12-11T03:30:04;99478.53;;;13.68;79.23
63204;BME280;49297;43.210;27.914;2022-12-11T03:32:37;99472.22;;;13.69;79.12
63204;BME280;49297;43.210;27.914;2022-12-11T03:35:16;99480.00;;;13.71;79.20
63204;BME280;49297;43.210;27.914;2022-12-11T03:37:44;99477.34;;;13.71;79.15
63204;BME280;49297;43.210;27.914;2022-12-11T03:40:15;99474.50;;;13.73;79.34
63204;BME280;49297;43.210;27.914;2022-12-11T03:42:44;99480.47;;;13.75;78.71
63204;BME280;49297;43.210;27.914;2022-12-11T03:45:12;99471.44;;;13.76;79.22
63204;BME280;49297;43.210;27.914;2022-12-11T03:47:39;99473.56;;;13.80;79.22
63204;BME280;49297;43.210;27.914;2022-12-11T03:50:08;99478.25;;;13.78;78.94
63204;BME280;49297;43.210;27.914;2022-12-11T03:52:36;99476.03;;;13.82;79.32
63204;BME280;49297;43.210;27.914;2022-12-11T03:55:05;99476.22;;;13.80;79.23
63204;BME280;49297;43.210;27.914;2022-12-11T03:57:35;99477.47;;;13.84;78.82
63204;BME280;49297;43.210;27.914;2022-12-11T04:00:05;99459.63;;;13.78;78.93
63204;BME280;49297;43.210;27.914;2022-12-11T04:02:34;99453.28;;;13.79;79.05
63204;BME280;49297;43.210;27.914;2022-12-11T04:05:00;99443.94;;;13.83;78.89
63204;BME280;49297;43.210;27.914;2022-12-11T04:07:26;99433.91;;;13.85;78.90
63204;BME280;49297;43.210;27.914;2022-12-11T04:09:53;99426.56;;;13.87;78.88
63204;BME280;49297;43.210;27.914;2022-12-11T04:12:19;99414.72;;;13.90;78.87
63204;BME280;49297;43.210;27.914;2022-12-11T04:14:45;99402.25;;;13.90;78.81
63204;BME280;49297;43.210;27.914;2022-12-11T04:17:28;99375.66;;;13.90;78.45
63204;BME280;49297;43.210;27.914;2022-12-11T04:20:13;99370.94;;;13.93;78.80
63204;BME280;49297;43.210;27.914;2022-12-11T04:22:57;99367.47;;;13.92;78.82
63204;BME280;49297;43.210;27.914;2022-12-11T04:25:46;99358.47;;;13.93;78.58
63204;BME280;49297;43.210;27.914;2022-12-11T04:28:11;99360.75;;;13.96;78.17
63204;BME280;49297;43.210;27.914;2022-12-11T04:30:38;99367.69;;;13.97;78.44
63204;BME280;49297;43.210;27.914;2022-12-11T04:33:03;99372.81;;;13.99;77.47
63204;BME280;49297;43.210;27.914;2022-12-11T04:35:30;99364.66;;;14.00;78.24
63204;BME280;49297;43.210;27.914;2022-12-11T04:37:56;99369.59;;;14.03;77.81
63204;BME280;49297;43.210;27.914;2022-12-11T04:40:21;99356.31;;;14.03;78.04
63204;BME280;49297;43.210;27.914;2022-12-11T04:42:47;99358.78;;;14.05;77.95
63204;BME280;49297;43.210;27.914;2022-12-11T04:45:13;99347.50;;;14.03;77.67
63204;BME280;49297;43.210;27.914;2022-12-11T04:47:40;99351.97;;;14.02;77.45
63204;BME280;49297;43.210;27.914;2022-12-11T04:50:08;99341.16;;;14.04;77.47
63204;BME280;49297;43.210;27.914;2022-12-11T04:52:34;99353.44;;;14.05;77.70
63204;BME280;49297;43.210;27.914;2022-12-11T04:55:02;99333.78;;;14.06;77.74
63204;BME280;49297;43.210;27.914;2022-12-11T04:57:28;99332.78;;;14.07;77.30
63204;BME280;49297;43.210;27.914;2022-12-11T04:59:53;99337.91;;;14.08;77.50
63204;BME280;49297;43.210;27.914;2022-12-11T05:02:19;99320.91;;;14.09;77.10
63204;BME280;49297;43.210;27.914;2022-12-11T05:04:45;99327.09;;;14.10;77.57
63204;BME280;49297;43.210;27.914;2022-12-11T05:07:11;99301.09;;;14.12;77.24
63204;BME280;49297;43.210;27.914;2022-12-11T05:09:36;99279.63;;;14.20;77.70
63204;BME280;49297;43.210;27.914;2022-12-11T05:12:02;99280.28;;;14.29;77.37
63204;BME280;49297;43.210;27.914;2022-12-11T05:14:28;99286.09;;;14.39;77.04
63204;BME280;49297;43.210;27.914;2022-12-11T05:16:57;99261.56;;;14.51;77.10
63204;BME280;49297;43.210;27.914;2022-12-11T05:19:24;99278.66;;;14.63;76.81
63204;BME280;49297;43.210;27.914;2022-12-11T05:21:49;99284.44;;;14.73;76.80
63204;BME280;49297;43.210;27.914;2022-12-11T05:24:15;99285.91;;;14.89;76.16
63204;BME280;49297;43.210;27.914;2022-12-11T05:26:41;99301.16;;;15.09;75.79
63204;BME280;49297;43.210;27.914;2022-12-11T05:29:07;99314.09;;;15.25;75.14
63204;BME280;49297;43.210;27.914;2022-12-11T05:31:33;99316.78;;;15.32;74.74
63204;BME280;49297;43.210;27.914;2022-12-11T05:33:59;99318.44;;;15.39;74.70
63204;BME280;49297;43.210;27.914;2022-12-11T05:36:30;99329.94;;;15.47;74.00
63204;BME280;49297;43.210;27.914;2022-12-11T05:38:58;99324.41;;;15.55;73.58
63204;BME280;49297;43.210;27.914;2022-12-11T05:41:26;99333.84;;;15.71;72.52
63204;BME280;49297;43.210;27.914;2022-12-11T05:43:53;99338.81;;;15.80;72.52
63204;BME280;49297;43.210;27.914;2022-12-11T05:46:21;99347.44;;;15.89;72.03
63204;BME280;49297;43.210;27.914;2022-12-11T05:48:50;99347.44;;;15.96;71.28
63204;BME280;49297;43.210;27.914;2022-12-11T05:51:16;99339.84;;;16.06;71.74
63204;BME280;49297;43.210;27.914;2022-12-11T05:53:43;99353.59;;;16.10;71.50
63204;BME280;49297;43.210;27.914;2022-12-11T05:56:19;99349.28;;;16.09;71.34
63204;BME280;49297;43.210;27.914;2022-12-11T05:58:46;99360.34;;;16.06;71.54
63204;BME280;49297;43.210;27.914;2022-12-11T06:01:16;99367.16;;;16.08;70.99
63204;BME280;49297;43.210;27.914;2022-12-11T06:03:42;99360.16;;;16.14;70.94
63204;BME280;49297;43.210;27.914;2022-12-11T06:06:09;99381.72;;;16.19;70.81
63204;BME280;49297;43.210;27.914;2022-12-11T06:08:35;99380.06;;;16.25;70.58
63204;BME280;49297;43.210;27.914;2022-12-11T06:11:02;99380.28;;;16.30;70.44
63204;BME280;49297;43.210;27.914;2022-12-11T06:13:28;99387.88;;;16.33;70.39
63204;BME280;49297;43.210;27.914;2022-12-11T06:15:54;99385.81;;;16.35;70.13
63204;BME280;49297;43.210;27.914;2022-12-11T06:18:19;99395.66;;;16.34;70.03
63204;BME280;49297;43.210;27.914;2022-12-11T06:20:45;99370.41;;;16.37;70.26
63204;BME280;49297;43.210;27.914;2022-12-11T06:23:11;99381.09;;;16.44;69.93
63204;BME280;49297;43.210;27.914;2022-12-11T06:25:38;99377.97;;;16.53;69.56
63204;BME280;49297;43.210;27.914;2022-12-11T06:28:04;99386.19;;;16.59;69.62
63204;BME280;49297;43.210;27.914;2022-12-11T06:30:30;99379.59;;;16.61;69.79
63204;BME280;49297;43.210;27.914;2022-12-11T06:32:57;99369.75;;;16.62;69.57
63204;BME280;49297;43.210;27.914;2022-12-11T06:35:23;99373.41;;;16.67;69.44
63204;BME280;49297;43.210;27.914;2022-12-11T06:37:50;99381.44;;;16.74;69.47
63204;BME280;49297;43.210;27.914;2022-12-11T06:40:15;99378.72;;;16.81;69.19
63204;BME280;49297;43.210;27.914;2022-12-11T06:42:41;99381.81;;;16.84;69.19
63204;BME280;49297;43.210;27.914;2022-12-11T06:45:08;99368.84;;;16.88;69.13
63204;BME280;49297;43.210;27.914;2022-12-11T06:47:34;99386.75;;;16.87;69.24
63204;BME280;49297;43.210;27.914;2022-12-11T06:50:00;99387.56;;;16.88;68.98
63204;BME280;49297;43.210;27.914;2022-12-11T06:52:28;99388.19;;;16.90;69.11
63204;BME280;49297;43.210;27.914;2022-12-11T06:54:54;99385.91;;;16.93;69.13
63204;BME280;49297;43.210;27.914;2022-12-11T06:57:20;99394.75;;;16.94;69.21
63204;BME280;49297;43.210;27.914;2022-12-11T06:59:46;99386.31;;;16.97;68.89
63204;BME280;49297;43.210;27.914;2022-12-11T07:02:13;99399.03;;;17.02;69.05
63204;BME280;49297;43.210;27.914;2022-12-11T07:04:39;99400.06;;;17.01;69.16
63204;BME280;49297;43.210;27.914;2022-12-11T07:07:06;99392.66;;;17.03;69.16
63204;BME280;49297;43.210;27.914;2022-12-11T07:09:32;99387.06;;;17.11;68.90
63204;BME280;49297;43.210;27.914;2022-12-11T07:11:58;99393.66;;;17.15;68.89
63204;BME280;49297;43.210;27.914;2022-12-11T07:14:24;99396.91;;;17.17;68.73
63204;BME280;49297;43.210;27.914;2022-12-11T07:16:50;99392.78;;;17.21;68.73
63204;BME280;49297;43.210;27.914;2022-12-11T07:19:16;99404.28;;;17.22;68.82
63204;BME280;49297;43.210;27.914;2022-12-11T07:21:41;99409.88;;;17.20;69.03
63204;BME280;49297;43.210;27.914;2022-12-11T07:24:08;99412.97;;;17.17;69.57
63204;BME280;49297;43.210;27.914;2022-12-11T07:26:33;99416.25;;;17.12;69.77
63204;BME280;49297;43.210;27.914;2022-12-11T07:29:00;99405.16;;;17.09;69.97
63204;BME280;49297;43.210;27.914;2022-12-11T07:31:27;99398.00;;;17.09;70.08
63204;BME280;49297;43.210;27.914;2022-12-11T07:33:58;99398.19;;;17.08;70.65
63204;BME280;49297;43.210;27.914;2022-12-11T07:36:24;99395.31;;;17.09;70.67
63204;BME280;49297;43.210;27.914;2022-12-11T07:38:50;99387.50;;;17.08;70.64
63204;BME280;49297;43.210;27.914;2022-12-11T07:41:16;99389.97;;;17.09;70.72
63204;BME280;49297;43.210;27.914;2022-12-11T07:43:42;99393.25;;;17.11;70.74
63204;BME280;49297;43.210;27.914;2022-12-11T07:46:16;99404.75;;;17.12;70.84
63204;BME280;49297;43.210;27.914;2022-12-11T07:48:44;99391.38;;;17.12;70.66
63204;BME280;49297;43.210;27.914;2022-12-11T07:51:42;99406.63;;;17.11;70.80
63204;BME280;49297;43.210;27.914;2022-12-11T07:54:12;99402.91;;;17.12;70.67
63204;BME280;49297;43.210;27.914;2022-12-11T07:56:44;99395.72;;;17.13;70.92
63204;BME280;49297;43.210;27.914;2022-12-11T07:59:11;99389.91;;;17.16;71.01
63204;BME280;49297;43.210;27.914;2022-12-11T08:01:37;99392.78;;;17.21;71.02
63204;BME280;49297;43.210;27.914;2022-12-11T08:04:06;99397.91;;;17.23;71.02
63204;BME280;49297;43.210;27.914;2022-12-11T08:06:34;99384.94;;;17.26;70.80
63204;BME280;49297;43.210;27.914;2022-12-11T08:09:02;99391.72;;;17.29;70.76
63204;BME280;49297;43.210;27.914;2022-12-11T08:11:29;99395.63;;;17.26;70.95
63204;BME280;49297;43.210;27.914;2022-12-11T08:13:55;99392.16;;;17.26;70.80
63204;BME280;49297;43.210;27.914;2022-12-11T08:16:21;99401.59;;;17.28;70.66
63204;BME280;49297;43.210;27.914;2022-12-11T08:18:47;99396.25;;;17.28;70.70
63204;BME280;49297;43.210;27.914;2022-12-11T08:21:19;99393.34;;;17.30;70.80
63204;BME280;49297;43.210;27.914;2022-12-11T08:23:45;99396.63;;;17.32;70.94
63204;BME280;49297;43.210;27.914;2022-12-11T08:26:18;99387.78;;;17.31;70.85
63204;BME280;49297;43.210;27.914;2022-12-11T08:28:44;99389.66;;;17.31;70.82
63204;BME280;49297;43.210;27.914;2022-12-11T08:31:12;99376.06;;;17.33;70.97
63204;BME280;49297;43.210;27.914;2022-12-11T08:33:38;99370.72;;;17.33;70.88
63204;BME280;49297;43.210;27.914;2022-12-11T08:36:07;99346.66;;;17.33;70.99
63204;BME280;49297;43.210;27.914;2022-12-11T08:38:34;99332.66;;;17.30;71.07
63204;BME280;49297;43.210;27.914;2022-12-11T08:43:38;99316.41;;;17.32;70.97
63204;BME280;49297;43.210;27.914;2022-12-11T08:46:04;99294.78;;;17.34;71.23
63204;BME280;49297;43.210;27.914;2022-12-11T08:48:32;99294.34;;;17.37;70.92
63204;BME280;49297;43.210;27.914;2022-12-11T08:51:04;99297.59;;;17.45;70.75
63204;BME280;49297;43.210;27.914;2022-12-11T08:53:30;99293.44;;;17.49;70.62
63204;BME280;49297;43.210;27.914;2022-12-11T08:56:05;99300.81;;;17.54;70.65
63204;BME280;49297;43.210;27.914;2022-12-11T08:58:31;99312.50;;;17.60;70.56
63204;BME280;49297;43.210;27.914;2022-12-11T09:00:57;99315.75;;;17.68;70.31
63204;BME280;49297;43.210;27.914;2022-12-11T09:03:23;99311.16;;;17.76;69.88
63204;BME280;49297;43.210;27.914;2022-12-11T09:05:49;99316.63;;;17.87;69.49
63204;BME280;49297;43.210;27.914;2022-12-11T09:08:16;99324.00;;;17.92;69.29
63204;BME280;49297;43.210;27.914;2022-12-11T09:10:42;99304.38;;;17.98;68.99
63204;BME280;49297;43.210;27.914;2022-12-11T09:13:09;99309.69;;;18.05;68.75
63204;BME280;49297;43.210;27.914;2022-12-11T09:15:39;99296.47;;;18.10;68.66
63204;BME280;49297;43.210;27.914;2022-12-11T09:18:05;99301.16;;;18.15;68.75
63204;BME280;49297;43.210;27.914;2022-12-11T09:20:30;99322.50;;;18.21;68.60
63204;BME280;49297;43.210;27.914;2022-12-11T09:22:56;99303.91;;;18.26;68.53
63204;BME280;49297;43.210;27.914;2022-12-11T09:25:22;99324.53;;;18.26;68.12
63204;BME280;49297;43.210;27.914;2022-12-11T09:27:48;99324.09;;;18.29;68.29
63204;BME280;49297;43.210;27.914;2022-12-11T09:30:14;99327.34;;;18.31;67.69
63204;BME280;49297;43.210;27.914;2022-12-11T09:32:40;99334.59;;;18.31;67.80
63204;BME280;49297;43.210;27.914;2022-12-11T09:35:06;99319.53;;;18.30;67.92
63204;BME280;49297;43.210;27.914;2022-12-11T09:37:32;99310.47;;;18.31;67.92
63204;BME280;49297;43.210;27.914;2022-12-11T09:39:58;99299.50;;;18.32;67.94
63204;BME280;49297;43.210;27.914;2022-12-11T09:43:05;99295.22;;;18.31;68.08
63204;BME280;49297;43.210;27.914;2022-12-11T09:45:33;99291.34;;;18.27;68.30
63204;BME280;49297;43.210;27.914;2022-12-11T09:48:00;99281.44;;;18.27;68.12
63204;BME280;49297;43.210;27.914;2022-12-11T09:50:31;99273.63;;;18.26;68.21
63204;BME280;49297;43.210;27.914;2022-12-11T09:53:10;99261.88;;;18.27;68.28
63204;BME280;49297;43.210;27.914;2022-12-11T09:55:59;99261.88;;;18.27;68.29
63204;BME280;49297;43.210;27.914;2022-12-11T10:03:50;99249.72;;;18.43;67.82
63204;BME280;49297;43.210;27.914;2022-12-11T10:06:45;99243.72;;;18.48;67.78
63204;BME280;49297;43.210;27.914;2022-12-11T10:09:22;99257.47;;;18.51;67.76
63204;BME280;49297;43.210;27.914;2022-12-11T10:14:54;99269.28;;;18.62;67.39
63204;BME280;49297;43.210;27.914;2022-12-11T10:17:34;99273.78;;;18.68;66.85
63204;BME280;49297;43.210;27.914;2022-12-11T10:20:28;99280.31;;;18.72;67.08
63204;BME280;49297;43.210;27.914;2022-12-11T10:23:02;99285.44;;;18.74;66.84
63204;BME280;49297;43.210;27.914;2022-12-11T10:25:49;99269.50;;;18.79;66.82
63204;BME280;49297;43.210;27.914;2022-12-11T10:28:19;99263.03;;;18.87;66.73
63204;BME280;49297;43.210;27.914;2022-12-11T10:33:54;99250.50;;;18.99;66.16
63204;BME280;49297;43.210;27.914;2022-12-11T10:36:34;99239.41;;;19.07;66.05
63204;BME280;49297;43.210;27.914;2022-12-11T10:39:02;99259.03;;;19.08;65.82
63204;BME280;49297;43.210;27.914;2022-12-11T10:43:54;99254.13;;;19.05;65.82
63204;BME280;49297;43.210;27.914;2022-12-11T10:48:51;99247.72;;;19.06;66.07
63204;BME280;49297;43.210;27.914;2022-12-11T10:51:19;99243.66;;;19.15;65.95
63204;BME280;49297;43.210;27.914;2022-12-11T10:53:51;99250.19;;;19.19;66.10
63204;BME280;49297;43.210;27.914;2022-12-11T10:56:27;99252.28;;;19.17;65.78
63204;BME280;49297;43.210;27.914;2022-12-11T10:58:55;99273.38;;;19.13;65.73
63204;BME280;49297;43.210;27.914;2022-12-11T11:01:24;99279.19;;;19.10;65.84
63204;BME280;49297;43.210;27.914;2022-12-11T11:06:24;99263.59;;;19.19;65.38
63204;BME280;49297;43.210;27.914;2022-12-11T11:08:56;99258.50;;;19.29;65.04
63204;BME280;49297;43.210;27.914;2022-12-11T11:11:31;99279.53;;;19.44;64.83
63204;BME280;49297;43.210;27.914;2022-12-11T11:14:14;99267.75;;;19.45;64.24
63204;BME280;49297;43.210;27.914;2022-12-11T11:16:42;99271.47;;;19.44;64.36
63204;BME280;49297;43.210;27.914;2022-12-11T11:21:48;99289.81;;;19.47;64.31
63204;BME280;49297;43.210;27.914;2022-12-11T11:24:35;99283.72;;;19.40;63.94
63204;BME280;49297;43.210;27.914;2022-12-11T11:29:57;99269.50;;;19.39;64.23
63204;BME280;49297;43.210;27.914;2022-12-11T11:32:31;99263.66;;;19.43;64.20
63204;BME280;49297;43.210;27.914;2022-12-11T11:37:39;99285.25;;;19.36;64.09
63204;BME280;49297;43.210;27.914;2022-12-11T11:40:12;99287.88;;;19.24;64.25
63204;BME280;49297;43.210;27.914;2022-12-11T11:42:51;99282.69;;;19.11;64.47
63204;BME280;49297;43.210;27.914;2022-12-11T11:45:23;99274.41;;;19.00;64.40
63204;BME280;49297;43.210;27.914;2022-12-11T11:48:12;99272.78;;;18.81;64.36
63204;BME280;49297;43.210;27.914;2022-12-11T11:50:44;99277.84;;;18.71;64.64
63204;BME280;49297;43.210;27.914;2022-12-11T11:53:22;99280.22;;;18.60;65.11
63204;BME280;49297;43.210;27.914;2022-12-11T11:58:54;99277.34;;;18.25;65.64
63204;BME280;49297;43.210;27.914;2022-12-11T12:01:22;99271.81;;;18.20;66.05
63204;BME280;49297;43.210;27.914;2022-12-11T12:03:49;99263.66;;;18.15;65.95
63204;BME280;49297;43.210;27.914;2022-12-11T12:06:33;99265.44;;;18.02;66.24
63204;BME280;49297;43.210;27.914;2022-12-11T12:17:31;99260.84;;;17.59;67.64
63204;BME280;49297;43.210;27.914;2022-12-11T12:23:01;99276.13;;;17.52;68.17
63204;BME280;49297;43.210;27.914;2022-12-11T12:25:39;99271.44;;;17.47;68.54
63204;BME280;49297;43.210;27.914;2022-12-11T12:42:20;99254.41;;;17.67;68.65
63204;BME280;49297;43.210;27.914;2022-12-11T12:47:30;99251.44;;;17.75;68.45
63204;BME280;49297;43.210;27.914;2022-12-11T12:49:58;99250.19;;;17.78;68.38
63204;BME280;49297;43.210;27.914;2022-12-11T12:52:33;99247.28;;;17.79;68.43
63204;BME280;49297;43.210;27.914;2022-12-11T12:55:04;99238.44;;;17.79;68.61
63204;BME280;49297;43.210;27.914;2022-12-11T13:00:12;99249.97;;;17.79;68.70
63204;BME280;49297;43.210;27.914;2022-12-11T13:02:50;99254.72;;;17.77;68.62
63204;BME280;49297;43.210;27.914;2022-12-11T13:05:26;99261.53;;;17.73;68.56
63204;BME280;49297;43.210;27.914;2022-12-11T13:08:03;99258.53;;;17.63;68.94
63204;BME280;49297;43.210;27.914;2022-12-11T13:10:32;99263.50;;;17.59;68.96
63204;BME280;49297;43.210;27.914;2022-12-11T13:12:59;99264.19;;;17.55;69.24
63204;BME280;49297;43.210;27.914;2022-12-11T13:17:59;99260.31;;;17.50;69.17
63204;BME280;49297;43.210;27.914;2022-12-11T13:20:28;99254.13;;;17.50;69.36
63204;BME280;49297;43.210;27.914;2022-12-11T13:25:31;99258.88;;;17.48;69.49
63204;BME280;49297;43.210;27.914;2022-12-11T13:28:05;99253.34;;;17.43;69.69
63204;BME280;49297;43.210;27.914;2022-12-11T13:30:32;99265.97;;;17.36;69.78
63204;BME280;49297;43.210;27.914;2022-12-11T13:33:16;99258.59;;;17.31;69.94
63204;BME280;49297;43.210;27.914;2022-12-11T13:35:44;99243.78;;;17.28;70.01
63204;BME280;49297;43.210;27.914;2022-12-11T13:38:18;99258.22;;;17.27;70.14
63204;BME280;49297;43.210;27.914;2022-12-11T13:40:51;99249.56;;;17.25;70.02
63204;BME280;49297;43.210;27.914;2022-12-11T13:43:32;99248.16;;;17.23;70.15
63204;BME280;49297;43.210;27.914;2022-12-11T13:46:03;99244.88;;;17.21;70.35
63204;BME280;49297;43.210;27.914;2022-12-11T13:48:37;99240.78;;;17.18;70.23
63204;BME280;49297;43.210;27.914;2022-12-11T13:51:06;99253.53;;;17.16;70.62
63204;BME280;49297;43.210;27.914;2022-12-11T13:53:32;99259.34;;;17.13;70.47
63204;BME280;49297;43.210;27.914;2022-12-11T13:56:06;99255.44;;;17.09;70.59
63204;BME280;49297;43.210;27.914;2022-12-11T13:58:41;99265.75;;;17.05;70.78
63204;BME280;49297;43.210;27.914;2022-12-11T14:01:10;99277.50;;;17.04;70.66
63204;BME280;49297;43.210;27.914;2022-12-11T14:06:27;99271.75;;;17.01;70.97
63204;BME280;49297;43.210;27.914;2022-12-11T14:08:56;99274.63;;;16.99;70.92
63204;BME280;49297;43.210;27.914;2022-12-11T14:11:30;99275.06;;;16.96;70.93
63204;BME280;49297;43.210;27.914;2022-12-11T14:14:00;99271.19;;;16.92;71.05
63204;BME280;49297;43.210;27.914;2022-12-11T14:16:28;99261.50;;;16.91;71.00
63204;BME280;49297;43.210;27.914;2022-12-11T14:19:00;99273.47;;;16.88;71.07
63204;BME280;49297;43.210;27.914;2022-12-11T14:21:27;99286.44;;;16.85;71.23
63204;BME280;49297;43.210;27.914;2022-12-11T14:23:55;99287.03;;;16.80;71.25
63204;BME280;49297;43.210;27.914;2022-12-11T14:26:29;99283.38;;;16.74;71.34
63204;BME280;49297;43.210;27.914;2022-12-11T14:28:56;99297.97;;;16.72;71.53
63204;BME280;49297;43.210;27.914;2022-12-11T14:34:04;99322.25;;;16.64;71.92
63204;BME280;49297;43.210;27.914;2022-12-11T14:36:32;99320.81;;;16.61;71.84